Time;durP1;ratioP1;P1;durP2;ratioP2;P2;SDS_P1;SDS_P2;PMS_P1;PMS_P2;Temp;Humidity;BMP_temperature;BMP_pressure;BME280_temperature;BME280_humidity;BME280_pressure;Samples;Min_cycle;Max_cycle;Signal;HPM_P1;HPM_P2
2021/09/25 00:02:02;;;;;;;10.43;5.18;;;;;;;17.85;77.33;101462.25;5114090;28;20512;-58
2021/09/25 00:04:30;;;;;;;12.20;6.75;;;;;;;17.81;77.77;101461.22;5099657;28;20906;-59
2021/09/25 00:06:58;;;;;;;10.50;5.25;;;;;;;17.84;77.50;101463.34;5112739;28;20130;-55
2021/09/25 00:09:25;;;;;;;10.48;6.20;;;;;;;17.85;77.07;101462.25;5114124;28;20050;-57
2021/09/25 00:11:53;;;;;;;10.43;5.05;;;;;;;17.81;77.32;101469.47;5114048;28;20035;-57
2021/09/25 00:14:20;;;;;;;10.88;5.80;;;;;;;17.80;77.64;101465.06;5106676;28;20039;-56
2021/09/25 00:16:48;;;;;;;10.70;6.53;;;;;;;17.77;77.53;101465.66;5113999;28;20402;-55
2021/09/25 00:19:16;;;;;;;12.05;6.72;;;;;;;17.78;77.37;101459.84;5106814;28;20543;-59
2021/09/25 00:21:44;;;;;;;11.23;6.53;;;;;;;17.75;77.72;101457.69;5114015;28;20126;-55
2021/09/25 00:24:12;;;;;;;10.00;5.70;;;;;;;17.73;77.63;101457.19;5104551;28;20036;-58
2021/09/25 00:26:40;;;;;;;12.27;6.32;;;;;;;17.74;77.32;101464.31;5108147;28;20051;-53
2021/09/25 00:29:08;;;;;;;11.55;6.22;;;;;;;17.74;77.41;101460.75;5113338;28;20043;-55
2021/09/25 00:31:35;;;;;;;12.60;6.30;;;;;;;17.71;77.44;101467.69;5113684;28;20051;-55
2021/09/25 00:34:03;;;;;;;9.85;5.70;;;;;;;17.69;77.64;101461.66;5104130;28;20111;-59
2021/09/25 00:36:31;;;;;;;10.65;5.43;;;;;;;17.69;77.66;101458.88;5111335;28;20036;-58
2021/09/25 00:38:58;;;;;;;10.25;6.18;;;;;;;17.70;77.31;101459.69;5113596;28;20047;-55
2021/09/25 00:41:26;;;;;;;9.15;5.70;;;;;;;17.68;77.43;101457.25;5109520;28;20044;-58
2021/09/25 00:43:54;;;;;;;12.57;6.47;;;;;;;17.67;77.30;101445.41;5099741;28;20070;-58
2021/09/25 00:46:22;;;;;;;11.68;6.25;;;;;;;17.66;77.42;101456.75;5112975;28;20040;-59
2021/09/25 00:48:50;;;;;;;8.60;5.15;;;;;;;17.65;77.41;101463.34;5110324;28;20506;-55
2021/09/25 00:51:17;;;;;;;10.68;5.70;;;;;;;17.64;77.28;101458.97;5112837;28;20057;-54
2021/09/25 00:53:45;;;;;;;9.73;5.07;;;;;;;17.65;77.18;101457.84;5102508;28;20114;-57
2021/09/25 00:56:13;;;;;;;10.77;6.18;;;;;;;17.64;77.29;101462.53;5116061;28;20307;-58
2021/09/25 00:58:41;;;;;;;11.93;6.28;;;;;;;17.62;77.33;101458.44;5117945;28;20050;-57
2021/09/25 01:01:08;;;;;;;8.48;5.30;;;;;;;17.61;77.58;101451.31;5119084;28;20505;-58
2021/09/25 01:03:37;;;;;;;10.68;5.60;;;;;;;17.61;77.55;101462.34;5110185;28;20091;-58
2021/09/25 01:06:05;;;;;;;7.82;4.05;;;;;;;17.65;77.12;101453.16;5100658;28;20233;-59
2021/09/25 01:08:32;;;;;;;10.30;5.20;;;;;;;17.64;77.04;101451.53;5111849;28;20066;-58
2021/09/25 01:11:00;;;;;;;11.32;5.43;;;;;;;17.65;76.95;101471.63;5113051;28;20565;-59
2021/09/25 01:13:27;;;;;;;8.63;5.07;;;;;;;17.63;77.07;101460.06;5104008;28;20034;-57
2021/09/25 01:15:55;;;;;;;9.40;5.65;;;;;;;17.64;76.78;101457.03;5112801;28;20085;-58
2021/09/25 01:18:23;;;;;;;8.85;5.13;;;;;;;17.65;77.02;101468.88;5112484;28;20085;-56
2021/09/25 01:20:50;;;;;;;8.70;5.15;;;;;;;17.65;77.02;101468.88;5113170;28;20090;-56
2021/09/25 01:23:18;;;;;;;10.70;5.78;;;;;;;17.63;76.99;101460.91;5103337;28;20039;-56
2021/09/25 01:25:45;;;;;;;8.38;4.70;;;;;;;17.63;76.90;101468.34;5112376;28;20051;-55
2021/09/25 01:28:14;;;;;;;9.13;5.82;;;;;;;17.64;76.89;101457.03;5112259;28;20039;-58
2021/09/25 01:30:41;;;;;;;9.10;5.28;;;;;;;17.65;76.88;101468.88;5112745;28;20042;-58
2021/09/25 01:33:09;;;;;;;9.95;5.80;;;;;;;17.63;76.91;101468.34;5107074;28;20036;-58
2021/09/25 01:35:37;;;;;;;10.35;4.65;;;;;;;17.60;77.04;101460.69;5100269;28;20048;-57
2021/09/25 01:38:04;;;;;;;10.75;6.20;;;;;;;17.58;76.88;101451.91;5107296;28;20033;-56
2021/09/25 01:40:32;;;;;;;9.52;5.05;;;;;;;17.56;76.99;101465.19;5107086;28;20040;-57
2021/09/25 01:42:59;;;;;;;9.52;4.82;;;;;;;17.54;76.78;101465.47;5090691;28;20493;-57
2021/09/25 01:45:27;;;;;;;9.07;5.25;;;;;;;17.54;77.02;101461.91;5101144;28;20147;-58
2021/09/25 01:47:55;;;;;;;11.88;5.68;;;;;;;17.52;76.82;101464.94;5111818;28;20032;-58
2021/09/25 01:50:23;;;;;;;10.52;5.55;;;;;;;17.53;76.72;101460.25;5101029;28;20144;-55
2021/09/25 01:52:50;;;;;;;8.90;5.03;;;;;;;17.52;76.89;101456.69;5110436;28;20039;-58
2021/09/25 01:55:18;;;;;;;13.15;4.97;;;;;;;17.55;76.80;101456.06;5107615;28;20036;-58
2021/09/25 01:57:45;;;;;;;10.20;5.20;;;;;;;17.55;76.64;101460.78;5108389;28;20039;-55
2021/09/25 02:00:16;;;;;;;9.65;5.40;;;;;;;17.59;76.27;101448.84;5109549;28;20044;-56
2021/09/25 02:02:43;;;;;;;8.73;5.07;;;;;;;17.56;76.31;101454.97;5106132;28;21669;-57
2021/09/25 02:05:11;;;;;;;11.43;5.80;;;;;;;17.54;76.35;101456.38;5104138;28;20051;-57
2021/09/25 02:07:39;;;;;;;9.63;5.30;;;;;;;17.50;76.57;101455.34;5109033;28;20520;-58
2021/09/25 02:10:07;;;;;;;12.30;5.15;;;;;;;17.45;76.66;101459.00;5111202;28;20063;-59
2021/09/25 02:12:35;;;;;;;11.30;6.18;;;;;;;17.43;76.72;101467.53;5110551;28;20063;-58
2021/09/25 02:15:04;;;;;;;9.88;5.00;;;;;;;17.44;76.77;101460.94;5106908;28;20048;-58
2021/09/25 02:17:32;;;;;;;9.02;5.15;;;;;;;17.43;76.85;101462.03;5102862;28;20081;-59
2021/09/25 02:19:59;;;;;;;10.65;5.53;;;;;;;17.43;76.69;101462.03;5105397;28;20035;-58
2021/09/25 02:22:27;;;;;;;9.32;4.70;;;;;;;17.43;76.63;101461.22;5106602;28;20035;-56
2021/09/25 02:24:55;;;;;;;8.73;4.47;;;;;;;17.42;76.61;101465.91;5101367;28;20051;-58
2021/09/25 02:27:22;;;;;;;8.93;4.82;;;;;;;17.38;77.01;101459.34;5111659;28;20040;-59
2021/09/25 02:29:50;;;;;;;8.80;5.30;;;;;;;17.38;76.75;101462.13;5105800;28;20123;-58
2021/09/25 02:32:17;;;;;;;8.80;4.82;;;;;;;17.39;76.81;101454.66;5112321;28;20036;-59
2021/09/25 02:34:45;;;;;;;9.07;5.15;;;;;;;17.37;76.71;101451.41;5100563;28;20043;-57
2021/09/25 02:37:12;;;;;;;10.75;5.72;;;;;;;17.35;76.81;101448.13;5096208;28;20513;-58
2021/09/25 02:39:40;;;;;;;9.35;4.95;;;;;;;17.36;77.00;101447.81;5101448;28;20039;-58
2021/09/25 02:42:08;;;;;;;10.35;5.13;;;;;;;17.37;76.83;101445.91;5110217;28;20561;-56
2021/09/25 02:44:35;;;;;;;9.07;4.65;;;;;;;17.36;76.89;101450.56;5102867;28;20092;-56
2021/09/25 02:47:03;;;;;;;10.70;5.45;;;;;;;17.38;76.81;101451.09;5107184;28;20114;-58
2021/09/25 02:49:30;;;;;;;8.20;5.15;;;;;;;17.36;76.71;101452.50;5111789;28;20043;-58
2021/09/25 02:51:58;;;;;;;8.10;4.82;;;;;;;17.33;77.10;101450.38;5112110;28;20402;-57
2021/09/25 02:54:27;;;;;;;10.45;5.43;;;;;;;17.33;76.94;101451.16;5108756;28;20110;-57
2021/09/25 02:56:54;;;;;;;9.10;4.95;;;;;;;17.32;76.95;101455.06;5106687;28;20126;-58
2021/09/25 02:59:22;;;;;;;8.20;4.45;;;;;;;17.31;76.97;101453.41;5111048;28;20028;-57
2021/09/25 03:01:50;;;;;;;8.40;4.82;;;;;;;17.32;76.98;101456.97;5112033;28;20044;-58
2021/09/25 03:04:17;;;;;;;13.85;5.30;;;;;;;17.30;77.13;101451.78;5110396;28;20086;-58
2021/09/25 03:06:45;;;;;;;9.30;5.00;;;;;;;17.27;77.10;101455.13;5096696;28;20052;-57
2021/09/25 03:09:12;;;;;;;10.00;4.95;;;;;;;17.25;77.03;101455.44;5105811;28;20039;-58
2021/09/25 03:11:40;;;;;;;9.05;4.55;;;;;;;17.27;77.33;101449.63;5104509;28;20036;-57
2021/09/25 03:14:08;;;;;;;8.48;4.80;;;;;;;17.28;77.08;101440.22;5103503;28;20062;-58
2021/09/25 03:16:35;;;;;;;8.98;4.82;;;;;;;17.28;77.07;101443.00;5111607;28;20032;-56
2021/09/25 03:19:03;;;;;;;8.20;4.55;;;;;;;17.29;77.19;101454.81;5109964;28;20490;-55
2021/09/25 03:21:32;;;;;;;7.13;3.78;;;;;;;17.29;77.32;101450.13;5106952;28;20039;-58
2021/09/25 03:23:59;;;;;;;8.35;4.03;;;;;;;17.30;77.29;101449.03;5114593;28;20044;-57
2021/09/25 03:26:29;;;;;;;7.38;4.05;;;;;;;17.28;77.47;101445.75;5113178;28;20043;-58
2021/09/25 03:28:57;;;;;;;7.82;3.95;;;;;;;17.27;77.36;101446.88;5115208;28;20035;-57
2021/09/25 03:31:24;;;;;;;6.63;3.83;;;;;;;17.27;77.34;101452.38;5115085;28;20040;-57
2021/09/25 03:33:52;;;;;;;7.70;4.18;;;;;;;17.28;77.49;101461.47;5111663;28;20032;-58
2021/09/25 03:36:20;;;;;;;6.30;3.78;;;;;;;17.26;77.57;101459.00;5108779;28;20047;-58
2021/09/25 03:38:47;;;;;;;6.53;4.18;;;;;;;17.26;77.45;101461.75;5113784;28;20067;-58
2021/09/25 03:41:15;;;;;;;8.15;4.30;;;;;;;17.27;77.49;101451.53;5115002;28;20128;-58
2021/09/25 03:43:44;;;;;;;7.38;4.07;;;;;;;17.25;77.42;101446.34;5113602;28;20044;-58
2021/09/25 03:46:12;;;;;;;8.90;4.05;;;;;;;17.29;77.38;101447.38;5111872;28;20130;-57
2021/09/25 03:48:39;;;;;;;7.70;4.15;;;;;;;17.28;77.41;101447.69;5107031;28;20078;-56
2021/09/25 03:51:07;;;;;;;8.05;3.97;;;;;;;17.24;77.49;101442.78;5114588;28;20126;-57
2021/09/25 03:53:34;;;;;;;7.85;4.55;;;;;;;17.22;77.52;101444.16;5112017;28;20040;-57
2021/09/25 03:56:07;;;;;;;7.30;4.22;;;;;;;17.22;77.80;101446.91;5115006;28;20127;-58
2021/09/25 03:58:36;;;;;;;6.90;3.92;;;;;;;17.24;77.82;101444.69;5114386;27;20043;-58
2021/09/25 04:01:04;;;;;;;9.38;4.13;;;;;;;17.25;77.87;101443.59;5114512;28;20490;-58
2021/09/25 04:03:32;;;;;;;8.20;4.30;;;;;;;17.27;77.75;101446.03;5104372;28;20032;-56
2021/09/25 04:06:01;;;;;;;8.82;4.88;;;;;;;17.29;77.53;101441.84;5106027;28;20496;-57
2021/09/25 04:08:32;;;;;;;5.90;3.60;;;;;;;17.27;77.73;101446.88;5105977;28;20031;-55
2021/09/25 04:11:00;;;;;;;7.97;3.90;;;;;;;17.25;77.66;101451.84;5108402;28;20512;-58
2021/09/25 04:13:28;;;;;;;8.48;4.53;;;;;;;17.22;77.79;101445.00;5111269;28;20039;-57
2021/09/25 04:15:56;;;;;;;9.15;4.55;;;;;;;17.20;77.98;101440.91;5112463;28;20107;-57
2021/09/25 04:18:24;;;;;;;8.63;4.60;;;;;;;17.17;78.26;101447.84;5113994;28;20410;-58
2021/09/25 04:20:51;;;;;;;7.03;4.00;;;;;;;17.19;78.39;101447.53;5112589;28;20490;-58
2021/09/25 04:23:19;;;;;;;9.75;4.70;;;;;;;17.20;78.15;101444.47;5106700;28;20042;-57
2021/09/25 04:25:46;;;;;;;7.78;4.07;;;;;;;17.21;78.25;101445.31;5107451;28;20061;-56
2021/09/25 04:28:14;;;;;;;8.05;4.53;;;;;;;17.22;78.01;101449.69;5109950;28;20040;-55
2021/09/25 04:30:42;;;;;;;7.90;4.60;;;;;;;17.22;78.25;101444.16;5114308;28;20054;-58
2021/09/25 04:33:11;;;;;;;8.55;4.18;;;;;;;17.21;78.20;101443.34;5107001;28;20097;-55
2021/09/25 04:35:39;;;;;;;9.00;4.35;;;;;;;17.22;78.24;101438.66;5107278;28;20495;-57
2021/09/25 04:38:07;;;;;;;6.70;3.80;;;;;;;17.22;78.30;101444.16;5108176;28;20035;-57
2021/09/25 04:40:35;;;;;;;8.75;4.28;;;;;;;17.24;78.23;101442.78;5113651;28;20071;-56
2021/09/25 04:43:03;;;;;;;7.15;3.75;;;;;;;17.26;77.96;101439.72;5113229;28;21474;-55
2021/09/25 04:45:31;;;;;;;13.13;4.75;;;;;;;17.25;78.07;101435.34;5103131;28;20036;-56
2021/09/25 04:47:59;;;;;;;7.40;3.78;;;;;;;17.23;78.23;101443.06;5113701;28;20081;-56
2021/09/25 04:50:30;;;;;;;6.90;4.20;;;;;;;17.21;78.10;101448.06;5101118;28;20051;-57
2021/09/25 04:53:23;;;;;;;11.52;6.07;;;;;;;17.18;78.21;101443.16;5111864;28;20035;-57
2021/09/25 04:55:51;;;;;;;10.30;5.35;;;;;;;17.16;78.38;101443.44;5097618;28;20523;-57
2021/09/25 04:58:23;;;;;;;7.88;3.90;;;;;;;17.15;78.31;101438.22;5113452;28;20051;-55
2021/09/25 05:00:50;;;;;;;11.23;4.95;;;;;;;17.13;78.93;101440.47;5112468;28;20078;-57
2021/09/25 05:03:18;;;;;;;9.80;4.40;;;;;;;17.11;78.75;101445.44;5103014;28;20089;-57
2021/09/25 05:05:46;;;;;;;8.68;4.78;;;;;;;17.10;79.00;101447.38;5105965;28;20044;-57
2021/09/25 05:08:14;;;;;;;8.23;4.40;;;;;;;17.08;79.07;101443.25;5110082;28;20497;-58
2021/09/25 05:10:41;;;;;;;7.70;4.55;;;;;;;17.09;79.02;101442.16;5112939;28;20040;-55
2021/09/25 05:13:09;;;;;;;10.95;4.93;;;;;;;17.12;78.67;101438.81;5107147;28;20032;-56
2021/09/25 05:15:36;;;;;;;7.13;4.28;;;;;;;17.15;78.67;101444.56;5104994;28;20065;-57
2021/09/25 05:18:04;;;;;;;6.43;4.25;;;;;;;17.14;78.86;101436.59;5107923;28;20058;-57
2021/09/25 05:20:32;;;;;;;8.63;4.47;;;;;;;17.19;78.50;101436.50;5103700;28;20486;-57
2021/09/25 05:22:59;;;;;;;14.38;5.30;;;;;;;17.18;78.42;101437.63;5111544;28;20561;-56
2021/09/25 05:25:27;;;;;;;7.95;5.00;;;;;;;17.18;78.34;101445.91;5111521;28;20075;-57
2021/09/25 05:27:54;;;;;;;7.40;4.28;;;;;;;17.16;78.59;101442.63;5111059;28;20504;-58
2021/09/25 05:30:22;;;;;;;7.43;4.35;;;;;;;17.15;78.61;101440.97;5097211;28;20051;-54
2021/09/25 05:32:50;;;;;;;10.65;4.40;;;;;;;17.16;78.53;101442.63;5109722;28;20127;-58
2021/09/25 05:35:17;;;;;;;9.55;4.55;;;;;;;17.19;78.58;101444.78;5107888;28;20036;-58
2021/09/25 05:37:45;;;;;;;6.97;4.07;;;;;;;17.16;78.66;101439.88;5108586;28;20040;-57
2021/09/25 05:40:13;;;;;;;7.68;3.88;;;;;;;17.19;78.42;101444.78;5112273;28;20501;-56
2021/09/25 05:42:41;;;;;;;7.80;4.07;;;;;;;17.20;78.27;101451.94;5111864;28;20397;-56
2021/09/25 05:45:09;;;;;;;8.57;4.45;;;;;;;17.15;78.36;101449.22;5108500;28;20035;-55
2021/09/25 05:47:36;;;;;;;9.13;4.72;;;;;;;17.09;78.92;101451.25;5104566;28;20494;-55
2021/09/25 05:50:04;;;;;;;8.05;3.65;;;;;;;17.09;78.74;101451.25;5111978;28;20194;-55
2021/09/25 05:52:32;;;;;;;8.95;4.20;;;;;;;17.09;78.76;101451.25;5112162;28;20032;-56
2021/09/25 05:55:00;;;;;;;8.07;4.00;;;;;;;17.12;78.59;101456.16;5100785;28;20056;-54
2021/09/25 05:57:27;;;;;;;7.50;4.50;;;;;;;17.08;78.93;101457.03;5102247;28;20032;-56
2021/09/25 05:59:55;;;;;;;10.55;5.20;;;;;;;17.07;79.20;101458.16;5098403;28;20050;-56
2021/09/25 06:02:22;;;;;;;6.30;3.42;;;;;;;17.07;79.25;101456.22;5101245;28;20035;-56
2021/09/25 06:04:50;;;;;;;11.05;4.18;;;;;;;17.11;78.94;101454.53;5095733;28;20063;-58
2021/09/25 06:07:19;;;;;;;8.73;4.63;;;;;;;17.08;79.18;101454.28;5100734;28;20036;-56
2021/09/25 06:09:46;;;;;;;6.53;3.65;;;;;;;17.07;79.22;101456.22;5101245;28;20040;-57
2021/09/25 06:12:14;;;;;;;9.82;4.15;;;;;;;17.09;79.18;101450.44;5097990;28;20596;-57
2021/09/25 06:14:42;;;;;;;8.85;4.18;;;;;;;17.09;79.38;101450.44;5100107;28;20050;-54
2021/09/25 06:17:09;;;;;;;10.95;4.57;;;;;;;17.08;79.16;101457.03;5094491;28;20101;-54
2021/09/25 06:19:37;;;;;;;6.70;3.85;;;;;;;17.08;79.34;101457.03;5110576;28;20081;-58
2021/09/25 06:22:06;;;;;;;8.55;4.22;;;;;;;17.07;79.40;101474.69;5106050;28;20047;-57
2021/09/25 06:24:34;;;;;;;8.82;4.28;;;;;;;17.13;79.27;101462.50;5097087;28;20070;-56
2021/09/25 06:27:02;;;;;;;10.90;4.88;;;;;;;17.12;79.09;101472.66;5099804;28;20036;-59
2021/09/25 06:29:29;;;;;;;10.60;5.28;;;;;;;17.08;79.83;101479.06;5105981;28;20043;-55
2021/09/25 06:31:57;;;;;;;11.02;6.65;;;;;;;17.00;80.07;101492.41;5116886;28;20128;-56
2021/09/25 06:34:25;;;;;;;8.57;4.55;;;;;;;16.98;79.99;101478.09;5114214;28;20498;-57
2021/09/25 06:36:53;;;;;;;11.15;5.97;;;;;;;16.96;80.45;101483.09;5110792;28;20043;-57
2021/09/25 06:39:22;;;;;;;10.68;5.30;;;;;;;16.97;80.18;101483.91;5110502;28;20039;-58
2021/09/25 06:41:50;;;;;;;9.00;4.45;;;;;;;16.98;80.16;101478.09;5101749;28;20059;-58
2021/09/25 06:44:19;;;;;;;9.77;5.40;;;;;;;17.02;80.32;101483.81;5112067;28;20404;-59
2021/09/25 06:46:46;;;;;;;12.15;5.65;;;;;;;17.01;80.29;101474.75;5109740;28;20047;-58
2021/09/25 06:49:14;;;;;;;9.25;5.07;;;;;;;16.99;80.26;101478.91;5108911;28;20044;-56
2021/09/25 06:51:42;;;;;;;12.05;7.07;;;;;;;16.94;80.73;101482.56;5111789;28;20039;-55
2021/09/25 06:54:09;;;;;;;7.07;4.68;;;;;;;16.94;80.42;101479.81;5111705;28;20245;-52
2021/09/25 06:56:37;;;;;;;10.57;4.95;;;;;;;16.99;80.26;101478.91;5115876;28;20126;-54
2021/09/25 06:59:04;;;;;;;9.80;5.43;;;;;;;17.02;80.32;101481.88;5113413;28;20072;-54
2021/09/25 07:01:32;;;;;;;11.85;6.68;;;;;;;17.01;80.49;101473.94;5114105;28;20032;-55
2021/09/25 07:04:00;;;;;;;8.50;4.82;;;;;;;16.99;80.57;101479.72;5115440;28;20039;-56
2021/09/25 07:06:28;;;;;;;10.13;5.72;;;;;;;17.01;80.61;101494.03;5115505;28;20074;-56
2021/09/25 07:08:56;;;;;;;9.02;5.25;;;;;;;17.05;80.29;101499.75;5113727;28;20036;-57
2021/09/25 07:11:23;;;;;;;9.60;4.15;;;;;;;17.10;79.79;101498.88;5115671;28;20035;-56
2021/09/25 07:13:51;;;;;;;11.80;7.25;;;;;;;17.13;79.77;101498.28;5115255;28;20044;-55
2021/09/25 07:16:19;;;;;;;13.23;7.70;;;;;;;17.08;80.38;101490.91;5115095;28;20492;-55
2021/09/25 07:18:46;;;;;;;13.10;7.82;;;;;;;17.13;80.10;101501.06;5113645;28;20452;-55
2021/09/25 07:21:14;;;;;;;10.25;4.80;;;;;;;17.18;79.58;101495.47;5106933;28;20138;-54
2021/09/25 07:23:41;;;;;;;12.27;6.82;;;;;;;17.23;79.53;101489.88;5107245;28;20120;-56
2021/09/25 07:26:09;;;;;;;16.88;8.07;;;;;;;17.16;79.96;101495.75;5100579;28;20490;-50
2021/09/25 07:28:37;;;;;;;13.32;7.72;;;;;;;17.14;80.15;101491.66;5110797;28;20546;-57
2021/09/25 07:31:06;;;;;;;9.57;5.13;;;;;;;17.14;80.13;101502.69;5097826;28;20533;-52
2021/09/25 07:33:33;;;;;;;14.38;9.10;;;;;;;17.20;80.15;101496.00;5098770;28;20056;-56
2021/09/25 07:36:02;;;;;;;12.57;8.02;;;;;;;17.16;80.25;101503.19;5101581;28;20067;-54
2021/09/25 07:38:30;;;;;;;12.40;4.45;;;;;;;17.19;80.00;101499.84;5098539;28;20101;-56
2021/09/25 07:40:57;;;;;;;10.70;6.45;;;;;;;17.17;80.03;101507.59;5102490;28;20086;-55
2021/09/25 07:43:26;;;;;;;10.80;5.68;;;;;;;17.20;80.08;101501.50;5095846;28;20422;-54
2021/09/25 07:45:57;;;;;;;13.73;8.95;;;;;;;17.22;79.85;101504.75;5095181;28;20453;-55
2021/09/25 07:48:25;;;;;;;9.43;5.40;;;;;;;17.20;80.07;101513.34;5095867;28;20051;-53
2021/09/25 07:50:53;;;;;;;12.60;6.95;;;;;;;17.28;79.87;101509.09;5094831;28;20142;-52
2021/09/25 07:53:21;;;;;;;12.73;7.28;;;;;;;17.31;79.84;101513.19;5106308;28;20044;-51
2021/09/25 07:55:48;;;;;;;6.72;3.97;;;;;;;17.31;79.70;101514.00;5104120;28;20043;-51
2021/09/25 07:58:16;;;;;;;13.77;7.35;;;;;;;17.36;79.67;101515.88;5102036;28;20485;-56
2021/09/25 08:00:44;;;;;;;14.93;8.82;;;;;;;17.34;79.61;101518.94;5102311;28;20486;-55
2021/09/25 08:03:12;;;;;;;8.90;4.78;;;;;;;17.38;79.55;101519.97;5099341;28;20061;-53
2021/09/25 08:05:40;;;;;;;15.25;9.65;;;;;;;17.36;79.82;101535.97;5100685;28;20418;-54
2021/09/25 08:08:08;;;;;;;13.43;7.20;;;;;;;17.32;79.78;101537.69;4748742;28;10001315;-51
2021/09/25 08:10:35;;;;;;;13.75;7.90;;;;;;;17.32;79.97;101543.19;5102707;28;20331;-56
2021/09/25 08:13:03;;;;;;;9.18;5.25;;;;;;;17.37;79.72;101545.06;5100117;28;20047;-53
2021/09/25 08:15:48;;;;;;;12.75;6.10;;;;;;;17.41;79.47;101546.09;5098462;28;20119;-51
2021/09/25 08:18:16;;;;;;;16.15;8.60;;;;;;;17.39;79.87;101537.31;5095619;28;20047;-56
2021/09/25 08:20:44;;;;;;;17.67;8.45;;;;;;;17.35;79.82;101542.59;5101272;28;20047;-53
2021/09/25 08:23:11;;;;;;;17.10;10.38;;;;;;;17.28;80.46;101547.66;5100735;28;20061;-56
2021/09/25 08:25:39;;;;;;;19.50;8.98;;;;;;;17.28;80.28;101541.34;5095989;28;20036;-55
2021/09/25 08:28:07;;;;;;;19.38;8.32;;;;;;;17.34;80.02;101542.88;5109327;28;20044;-51
2021/09/25 08:30:35;;;;;;;20.85;9.35;;;;;;;17.36;80.11;101548.94;5099385;28;20043;-53
2021/09/25 08:33:03;;;;;;;18.90;10.68;;;;;;;17.33;80.17;101553.09;5111032;28;20109;-52
2021/09/25 08:35:31;;;;;;;17.45;9.32;;;;;;;17.37;80.26;101556.09;5111434;28;20044;-52
2021/09/25 08:37:59;;;;;;;13.20;6.40;;;;;;;17.41;79.76;101552.44;5100342;28;20512;-56
2021/09/25 08:40:26;;;;;;;16.85;9.98;;;;;;;17.42;79.82;101554.06;5097108;28;20131;-52
2021/09/25 08:42:54;;;;;;;14.15;7.85;;;;;;;17.41;80.11;101554.38;5110954;28;20047;-56
2021/09/25 08:45:23;;;;;;;14.27;8.30;;;;;;;17.42;79.92;101556.84;5111097;28;20044;-54
2021/09/25 08:47:56;;;;;;;14.18;8.27;;;;;;;17.46;79.84;101560.66;5111560;28;20044;-54
2021/09/25 08:50:24;;;;;;;15.65;8.63;;;;;;;17.43;80.20;101568.66;5108896;28;20760;-55
2021/09/25 08:52:52;;;;;;;20.75;10.32;;;;;;;17.43;80.32;101576.94;5111362;28;20039;-49
2021/09/25 08:55:20;;;;;;;17.20;7.72;;;;;;;17.46;79.98;101571.66;5104645;28;20041;-52
2021/09/25 08:57:47;;;;;;;15.02;7.90;;;;;;;17.51;79.81;101573.53;5109310;28;20397;-50
2021/09/25 09:00:35;;;;;;;17.00;8.20;;;;;;;17.51;79.61;101570.78;5109378;28;20054;-53
2021/09/25 09:03:30;;;;;;;13.95;7.35;;;;;;;17.51;79.85;101578.19;5099018;28;20040;-51
2021/09/25 09:06:18;;;;;;;16.70;10.55;;;;;;;17.49;80.19;101577.69;5111335;28;20044;-55
2021/09/25 09:08:51;;;;;;;22.73;10.23;;;;;;;17.50;80.32;101576.56;5096583;28;20043;-53
2021/09/25 09:11:20;;;;;;;18.33;10.85;;;;;;;17.46;80.66;101579.94;5095194;28;20053;-52
2021/09/25 09:13:51;;;;;;;19.35;9.73;;;;;;;17.51;80.13;101578.19;5103061;28;20064;-52
2021/09/25 09:16:19;;;;;;;17.48;9.00;;;;;;;17.52;80.32;101574.34;5102523;28;20453;-56
2021/09/25 09:18:48;;;;;;;15.27;8.52;;;;;;;17.58;79.99;101585.00;5109344;28;20042;-51
2021/09/25 09:21:16;;;;;;;17.88;9.43;;;;;;;17.62;79.90;101590.72;5099560;28;20039;-53
2021/09/25 09:23:50;;;;;;;17.60;9.07;;;;;;;17.63;79.60;101592.34;5107606;28;20470;-55
2021/09/25 09:26:22;;;;;;;16.27;8.82;;;;;;;17.67;79.66;101593.41;5100525;28;20717;-50
2021/09/25 09:28:52;;;;;;;19.63;10.90;;;;;;;17.65;80.16;101588.22;5105356;28;20071;-51
2021/09/25 09:31:20;;;;;;;15.77;10.63;;;;;;;17.65;80.30;101587.38;5103365;28;20050;-51
2021/09/25 09:33:57;;;;;;;19.13;10.98;;;;;;;17.64;80.45;101583.00;5096719;28;20142;-53
2021/09/25 09:36:42;;;;;;;16.15;9.10;;;;;;;17.63;80.38;101584.94;5094749;28;20131;-54
2021/09/25 09:39:16;;;;;;;19.55;10.20;;;;;;;17.64;80.55;101586.56;5090521;28;20028;-53
2021/09/25 09:41:47;;;;;;;19.17;9.38;;;;;;;17.66;80.29;101591.78;5090266;28;20417;-56
2021/09/25 09:44:26;;;;;;;16.05;8.73;;;;;;;17.72;79.83;101584.25;5092595;28;20123;-55
2021/09/25 09:46:58;;;;;;;16.30;10.75;;;;;;;17.71;80.28;101586.19;5092996;28;20039;-55
2021/09/25 09:49:29;;;;;;;20.90;11.48;;;;;;;17.71;80.23;101582.63;5109602;28;20066;-52
2021/09/25 09:52:09;;;;;;;16.60;9.80;;;;;;;17.72;79.77;101585.06;5109678;28;20047;-55
2021/09/25 09:54:45;;;;;;;13.27;7.18;;;;;;;17.77;79.28;101593.25;5109757;28;20454;-52
2021/09/25 09:57:45;;;;;;;19.95;12.32;;;;;;;17.76;79.90;101588.06;5041928;28;20064;-53
2021/09/25 10:00:13;;;;;;;12.68;7.00;;;;;;;17.80;79.17;101586.34;5047092;28;20049;-52
2021/09/25 10:02:42;;;;;;;12.93;8.60;;;;;;;17.85;79.40;101598.16;5016672;28;20069;-54
2021/09/25 10:05:14;;;;;;;13.40;8.43;;;;;;;17.85;79.14;101589.88;5029032;28;20041;-52
2021/09/25 10:07:43;;;;;;;13.75;8.27;;;;;;;17.85;79.38;101584.38;5030062;28;20053;-53
2021/09/25 10:10:11;;;;;;;19.48;9.43;;;;;;;17.84;79.61;101592.94;5041517;28;20641;-51
2021/09/25 10:12:39;;;;;;;17.08;8.77;;;;;;;17.83;79.51;101592.13;5046742;28;20072;-53
2021/09/25 10:15:08;;;;;;;14.77;8.68;;;;;;;17.84;79.63;101588.22;5057918;28;20071;-53
2021/09/25 10:17:36;;;;;;;15.38;7.50;;;;;;;17.86;79.70;101591.50;5109993;28;20521;-55
2021/09/25 10:20:04;;;;;;;16.60;10.27;;;;;;;17.85;80.09;101581.63;5109528;28;20031;-53
2021/09/25 10:22:32;;;;;;;17.70;8.50;;;;;;;17.90;79.57;101585.41;5108276;28;20553;-53
2021/09/25 10:25:04;;;;;;;16.08;9.27;;;;;;;17.90;79.91;101585.41;5106479;28;20498;-53
2021/09/25 10:27:40;;;;;;;16.05;10.45;;;;;;;17.87;80.15;101593.16;5109635;28;20050;-53
2021/09/25 10:30:10;;;;;;;17.02;9.30;;;;;;;17.88;79.86;101586.53;5109259;28;20036;-52
2021/09/25 10:32:48;;;;;;;18.65;8.40;;;;;;;17.90;79.71;101586.22;5109728;28;20042;-54
2021/09/25 10:35:18;;;;;;;17.08;8.63;;;;;;;17.92;79.64;101583.16;5107654;28;20498;-50
2021/09/25 10:37:55;;;;;;;18.60;10.43;;;;;;;17.93;79.74;101582.06;5109044;28;20044;-54
2021/09/25 10:40:43;;;;;;;16.40;10.13;;;;;;;17.92;79.48;101581.25;5109334;28;20043;-52
2021/09/25 10:43:20;;;;;;;17.67;10.50;;;;;;;17.93;79.59;101573.78;5109617;28;20123;-51
2021/09/25 10:45:50;;;;;;;16.20;10.20;;;;;;;17.93;79.53;101571.84;5094648;28;20429;-51
2021/09/25 10:48:24;;;;;;;20.15;10.02;;;;;;;17.98;79.36;101570.94;5109686;28;20048;-55
2021/09/25 10:51:01;;;;;;;15.35;5.88;;;;;;;18.02;79.26;101572.81;5095978;28;20065;-50
2021/09/25 10:53:36;;;;;;;14.57;7.88;;;;;;;18.05;79.01;101579.66;5107003;28;20373;-53
2021/09/25 10:56:15;;;;;;;13.73;8.43;;;;;;;18.07;78.99;101572.72;5108893;28;20046;-50
2021/09/25 10:58:51;;;;;;;14.80;10.35;;;;;;;18.05;78.94;101577.72;5109434;28;20520;-55
2021/09/25 11:01:19;;;;;;;15.45;9.07;;;;;;;18.05;78.87;101571.38;5108509;28;20039;-54
2021/09/25 11:03:52;;;;;;;18.63;10.25;;;;;;;18.03;78.95;101573.63;5108903;28;20061;-52
2021/09/25 11:06:22;;;;;;;15.23;10.32;;;;;;;18.01;78.81;101571.16;5102001;28;20059;-56
2021/09/25 11:09:00;;;;;;;15.38;8.02;;;;;;;18.07;78.93;101569.16;5103643;28;20062;-52
2021/09/25 11:11:38;;;;;;;16.20;8.45;;;;;;;18.06;78.80;101576.59;5109454;28;20085;-54
2021/09/25 11:14:06;;;;;;;17.55;10.43;;;;;;;18.07;78.75;101569.16;5108023;28;20047;-52
2021/09/25 11:16:59;;;;;;;16.70;10.25;;;;;;;18.11;78.89;101570.16;5108102;28;20042;-52
2021/09/25 11:19:26;;;;;;;21.45;10.75;;;;;;;18.16;78.36;101564.59;5111231;28;20172;-51
2021/09/25 11:22:11;;;;;;;16.17;9.45;;;;;;;18.19;77.97;101566.75;5111223;28;20040;-54
2021/09/25 11:24:42;;;;;;;26.73;10.05;;;;;;;18.22;77.93;101565.31;5098299;28;20031;-55
2021/09/25 11:27:22;;;;;;;14.50;9.32;;;;;;;18.21;77.94;101563.69;5109080;28;20082;-50
2021/09/25 11:30:14;;;;;;;17.35;10.52;;;;;;;18.21;77.63;101556.22;5107365;28;20031;-52